sensor_id;sensor_type;location;lat;lon;timestamp;pressure;altitude;pressure_sealevel;temperature;humidity
84427;BME280;74637;52.170;21.034;2024-01-16T00:00:20;98468.19;;;-2.35;74.52
84427;BME280;74637;52.170;21.034;2024-01-16T00:03:06;98482.78;;;-2.36;72.40
84427;BME280;74637;52.170;21.034;2024-01-16T00:05:33;98477.76;;;-2.36;71.95
84427;BME280;74637;52.170;21.034;2024-01-16T00:07:59;98497.40;;;-2.38;72.56
84427;BME280;74637;52.170;21.034;2024-01-16T00:10:26;98482.77;;;-2.41;72.51
84427;BME280;74637;52.170;21.034;2024-01-16T00:12:52;98511.04;;;-2.41;72.34
84427;BME280;74637;52.170;21.034;2024-01-16T00:15:19;98493.02;;;-2.41;73.74
84427;BME280;74637;52.170;21.034;2024-01-16T00:17:46;98506.01;;;-2.41;73.79
84427;BME280;74637;52.170;21.034;2024-01-16T00:20:12;98524.27;;;-2.43;73.69
84427;BME280;74637;52.170;21.034;2024-01-16T00:22:39;98515.80;;;-2.44;74.70
84427;BME280;74637;52.170;21.034;2024-01-16T00:25:06;98535.05;;;-2.44;73.68
84427;BME280;74637;52.170;21.034;2024-01-16T00:27:33;98530.73;;;-2.44;74.35
84427;BME280;74637;52.170;21.034;2024-01-16T00:29:59;98545.66;;;-2.45;74.04
84427;BME280;74637;52.170;21.034;2024-01-16T00:32:26;98558.16;;;-2.45;73.86
84427;BME280;74637;52.170;21.034;2024-01-16T00:34:52;98548.63;;;-2.45;72.73
84427;BME280;74637;52.170;21.034;2024-01-16T00:37:19;98554.73;;;-2.46;75.26
84427;BME280;74637;52.170;21.034;2024-01-16T00:39:45;98566.00;;;-2.46;73.68
84427;BME280;74637;52.170;21.034;2024-01-16T00:42:12;98572.06;;;-2.46;73.43
84427;BME280;74637;52.170;21.034;2024-01-16T00:44:38;98572.80;;;-2.48;73.21
84427;BME280;74637;52.170;21.034;2024-01-16T00:47:05;98579.77;;;-2.48;74.90
84427;BME280;74637;52.170;21.034;2024-01-16T00:49:32;98581.80;;;-2.47;74.47
84427;BME280;74637;52.170;21.034;2024-01-16T00:51:58;98593.60;;;-2.47;74.75
84427;BME280;74637;52.170;21.034;2024-01-16T00:54:25;98596.38;;;-2.47;75.31
84427;BME280;74637;52.170;21.034;2024-01-16T00:56:51;98597.41;;;-2.46;74.99
84427;BME280;74637;52.170;21.034;2024-01-16T00:59:21;98608.70;;;-2.47;73.54
84427;BME280;74637;52.170;21.034;2024-01-16T01:01:48;98609.92;;;-2.47;74.89
84427;BME280;74637;52.170;21.034;2024-01-16T01:04:14;98609.39;;;-2.47;74.31
84427;BME280;74637;52.170;21.034;2024-01-16T01:06:41;98605.09;;;-2.48;75.50
84427;BME280;74637;52.170;21.034;2024-01-16T01:09:07;98615.70;;;-2.50;73.08
84427;BME280;74637;52.170;21.034;2024-01-16T01:11:34;98619.15;;;-2.49;74.26
84427;BME280;74637;52.170;21.034;2024-01-16T01:14:01;98612.58;;;-2.50;74.61
84427;BME280;74637;52.170;21.034;2024-01-16T01:16:27;98611.05;;;-2.51;74.96
84427;BME280;74637;52.170;21.034;2024-01-16T01:18:54;98609.36;;;-2.53;74.04
84427;BME280;74637;52.170;21.034;2024-01-16T01:21:20;98616.81;;;-2.53;74.40
84427;BME280;74637;52.170;21.034;2024-01-16T01:23:47;98611.48;;;-2.54;76.00
84427;BME280;74637;52.170;21.034;2024-01-16T01:26:14;98624.14;;;-2.54;75.70
84427;BME280;74637;52.170;21.034;2024-01-16T01:28:40;98629.86;;;-2.54;74.72
84427;BME280;74637;52.170;21.034;2024-01-16T01:31:11;98629.65;;;-2.53;75.36
84427;BME280;74637;52.170;21.034;2024-01-16T01:33:39;98636.38;;;-2.52;76.38
84427;BME280;74637;52.170;21.034;2024-01-16T01:36:06;98642.63;;;-2.51;75.70
84427;BME280;74637;52.170;21.034;2024-01-16T01:38:32;98651.31;;;-2.52;75.59
84427;BME280;74637;52.170;21.034;2024-01-16T01:40:59;98655.00;;;-2.54;73.89
84427;BME280;74637;52.170;21.034;2024-01-16T01:43:25;98649.51;;;-2.56;75.72
84427;BME280;74637;52.170;21.034;2024-01-16T01:46:19;98656.42;;;-2.55;75.61
84427;BME280;74637;52.170;21.034;2024-01-16T01:48:48;98657.67;;;-2.56;74.07
84427;BME280;74637;52.170;21.034;2024-01-16T01:51:17;98661.54;;;-2.58;74.97
84427;BME280;74637;52.170;21.034;2024-01-16T01:53:48;98668.70;;;-2.60;74.00
84427;BME280;74637;52.170;21.034;2024-01-16T01:56:19;98667.05;;;-2.64;74.29
84427;BME280;74637;52.170;21.034;2024-01-16T01:58:49;98678.37;;;-2.66;75.01
84427;BME280;74637;52.170;21.034;2024-01-16T02:01:20;98683.96;;;-2.67;75.76
84427;BME280;74637;52.170;21.034;2024-01-16T02:03:49;98694.21;;;-2.68;73.51
84427;BME280;74637;52.170;21.034;2024-01-16T02:06:16;98693.54;;;-2.69;74.40
84427;BME280;74637;52.170;21.034;2024-01-16T02:08:44;98700.86;;;-2.71;73.77
84427;BME280;74637;52.170;21.034;2024-01-16T02:11:11;98715.86;;;-2.74;72.52
84427;BME280;74637;52.170;21.034;2024-01-16T02:13:38;98713.65;;;-2.76;72.28
84427;BME280;74637;52.170;21.034;2024-01-16T02:16:05;98713.42;;;-2.81;71.99
84427;BME280;74637;52.170;21.034;2024-01-16T02:18:32;98720.06;;;-2.84;73.67
84427;BME280;74637;52.170;21.034;2024-01-16T02:21:05;98720.15;;;-2.88;74.19
84427;BME280;74637;52.170;21.034;2024-01-16T02:23:33;98735.05;;;-2.94;74.29
84427;BME280;74637;52.170;21.034;2024-01-16T02:26:01;98730.48;;;-3.00;73.60
84427;BME280;74637;52.170;21.034;2024-01-16T02:28:28;98728.01;;;-3.05;74.02
84427;BME280;74637;52.170;21.034;2024-01-16T02:30:55;98738.83;;;-3.08;74.40
84427;BME280;74637;52.170;21.034;2024-01-16T02:33:22;98738.23;;;-3.13;73.45
84427;BME280;74637;52.170;21.034;2024-01-16T02:35:49;98743.98;;;-3.14;74.99
84427;BME280;74637;52.170;21.034;2024-01-16T02:38:16;98757.66;;;-3.15;73.30
84427;BME280;74637;52.170;21.034;2024-01-16T02:40:42;98755.77;;;-3.15;74.58
84427;BME280;74637;52.170;21.034;2024-01-16T02:43:09;98764.30;;;-3.17;73.46
84427;BME280;74637;52.170;21.034;2024-01-16T02:45:35;98770.44;;;-3.20;73.22
84427;BME280;74637;52.170;21.034;2024-01-16T02:48:02;98766.05;;;-3.26;73.20
84427;BME280;74637;52.170;21.034;2024-01-16T02:50:29;98772.48;;;-3.28;72.46
84427;BME280;74637;52.170;21.034;2024-01-16T02:52:56;98774.55;;;-3.27;72.84
84427;BME280;74637;52.170;21.034;2024-01-16T02:55:22;98776.29;;;-3.27;72.21
84427;BME280;74637;52.170;21.034;2024-01-16T02:57:49;98781.70;;;-3.28;73.03
84427;BME280;74637;52.170;21.034;2024-01-16T03:00:16;98791.76;;;-3.29;72.84
84427;BME280;74637;52.170;21.034;2024-01-16T03:02:44;98790.27;;;-3.32;72.99
84427;BME280;74637;52.170;21.034;2024-01-16T03:05:10;98799.50;;;-3.35;72.46
84427;BME280;74637;52.170;21.034;2024-01-16T03:07:37;98802.34;;;-3.39;72.63
84427;BME280;74637;52.170;21.034;2024-01-16T03:10:04;98807.10;;;-3.43;71.51
84427;BME280;74637;52.170;21.034;2024-01-16T03:12:30;98809.23;;;-3.45;71.50
84427;BME280;74637;52.170;21.034;2024-01-16T03:14:57;98815.36;;;-3.49;71.52
84427;BME280;74637;52.170;21.034;2024-01-16T03:17:23;98818.17;;;-3.51;69.98
84427;BME280;74637;52.170;21.034;2024-01-16T03:19:50;98821.80;;;-3.51;71.94
84427;BME280;74637;52.170;21.034;2024-01-16T03:22:16;98825.83;;;-3.53;70.18
84427;BME280;74637;52.170;21.034;2024-01-16T03:24:43;98826.72;;;-3.55;71.55
84427;BME280;74637;52.170;21.034;2024-01-16T03:27:09;98830.23;;;-3.58;71.04
84427;BME280;74637;52.170;21.034;2024-01-16T03:29:36;98831.16;;;-3.61;72.12
84427;BME280;74637;52.170;21.034;2024-01-16T03:32:03;98834.67;;;-3.63;71.34
84427;BME280;74637;52.170;21.034;2024-01-16T03:34:33;98839.58;;;-3.67;73.28
84427;BME280;74637;52.170;21.034;2024-01-16T03:36:59;98849.76;;;-3.74;72.40
84427;BME280;74637;52.170;21.034;2024-01-16T03:39:26;98857.27;;;-3.78;71.39
84427;BME280;74637;52.170;21.034;2024-01-16T03:41:52;98852.30;;;-3.81;70.97
84427;BME280;74637;52.170;21.034;2024-01-16T03:44:19;98855.30;;;-3.85;73.54
84427;BME280;74637;52.170;21.034;2024-01-16T03:46:45;98857.95;;;-3.88;74.31
84427;BME280;74637;52.170;21.034;2024-01-16T03:49:12;98863.87;;;-3.90;73.60
84427;BME280;74637;52.170;21.034;2024-01-16T03:51:38;98869.83;;;-3.94;74.38
84427;BME280;74637;52.170;21.034;2024-01-16T03:54:09;98873.34;;;-3.98;74.65
84427;BME280;74637;52.170;21.034;2024-01-16T03:56:35;98872.52;;;-4.00;74.36
84427;BME280;74637;52.170;21.034;2024-01-16T03:59:02;98879.14;;;-4.04;74.38
84427;BME280;74637;52.170;21.034;2024-01-16T04:01:31;98886.29;;;-4.07;73.79
84427;BME280;74637;52.170;21.034;2024-01-16T04:03:58;98896.36;;;-4.09;74.28
84427;BME280;74637;52.170;21.034;2024-01-16T04:06:25;98903.86;;;-4.12;74.77
84427;BME280;74637;52.170;21.034;2024-01-16T04:08:52;98912.02;;;-4.15;74.97
84427;BME280;74637;52.170;21.034;2024-01-16T04:11:19;98916.90;;;-4.18;74.51
84427;BME280;74637;52.170;21.034;2024-01-16T04:13:46;98923.36;;;-4.21;74.89
84427;BME280;74637;52.170;21.034;2024-01-16T04:16:12;98926.02;;;-4.26;76.19
84427;BME280;74637;52.170;21.034;2024-01-16T04:18:41;98935.25;;;-4.31;75.69
84427;BME280;74637;52.170;21.034;2024-01-16T04:21:09;98938.08;;;-4.35;76.20
84427;BME280;74637;52.170;21.034;2024-01-16T04:23:35;98941.25;;;-4.40;76.90
84427;BME280;74637;52.170;21.034;2024-01-16T04:26:03;98948.90;;;-4.43;75.34
84427;BME280;74637;52.170;21.034;2024-01-16T04:28:29;98953.61;;;-4.46;75.61
84427;BME280;74637;52.170;21.034;2024-01-16T04:30:56;98961.98;;;-4.50;75.93
84427;BME280;74637;52.170;21.034;2024-01-16T04:33:22;98963.55;;;-4.52;76.62
84427;BME280;74637;52.170;21.034;2024-01-16T04:35:49;98967.92;;;-4.56;76.44
84427;BME280;74637;52.170;21.034;2024-01-16T04:38:16;98965.91;;;-4.61;76.10
84427;BME280;74637;52.170;21.034;2024-01-16T04:40:43;98974.95;;;-4.66;77.32
84427;BME280;74637;52.170;21.034;2024-01-16T04:43:10;98979.64;;;-4.66;77.78
84427;BME280;74637;52.170;21.034;2024-01-16T04:45:36;98977.23;;;-4.67;77.77
84427;BME280;74637;52.170;21.034;2024-01-16T04:48:03;98977.43;;;-4.70;77.87
84427;BME280;74637;52.170;21.034;2024-01-16T04:50:30;98977.80;;;-4.73;78.08
84427;BME280;74637;52.170;21.034;2024-01-16T04:53:00;98979.20;;;-4.74;78.54
84427;BME280;74637;52.170;21.034;2024-01-16T04:55:30;98981.09;;;-4.73;78.71
84427;BME280;74637;52.170;21.034;2024-01-16T04:57:57;98985.06;;;-4.73;78.54
84427;BME280;74637;52.170;21.034;2024-01-16T05:00:24;98994.09;;;-4.76;78.25
84427;BME280;74637;52.170;21.034;2024-01-16T05:02:50;98998.95;;;-4.77;78.32
84427;BME280;74637;52.170;21.034;2024-01-16T05:05:17;98996.34;;;-4.76;78.50
84427;BME280;74637;52.170;21.034;2024-01-16T05:07:44;99002.39;;;-4.75;78.94
84427;BME280;74637;52.170;21.034;2024-01-16T05:10:12;99015.16;;;-4.75;79.48
84427;BME280;74637;52.170;21.034;2024-01-16T05:12:41;99020.83;;;-4.73;79.38
84427;BME280;74637;52.170;21.034;2024-01-16T05:15:09;99028.24;;;-4.70;79.43
84427;BME280;74637;52.170;21.034;2024-01-16T05:17:37;99031.14;;;-4.66;79.28
84427;BME280;74637;52.170;21.034;2024-01-16T05:20:05;99036.49;;;-4.65;79.35
84427;BME280;74637;52.170;21.034;2024-01-16T05:22:31;99036.32;;;-4.65;79.27
84427;BME280;74637;52.170;21.034;2024-01-16T05:24:59;99034.80;;;-4.69;78.91
84427;BME280;74637;52.170;21.034;2024-01-16T05:27:26;99040.58;;;-4.75;79.23
84427;BME280;74637;52.170;21.034;2024-01-16T05:29:52;99050.46;;;-4.79;79.73
84427;BME280;74637;52.170;21.034;2024-01-16T05:32:19;99053.80;;;-4.82;79.80
84427;BME280;74637;52.170;21.034;2024-01-16T05:34:45;99061.27;;;-4.88;79.06
84427;BME280;74637;52.170;21.034;2024-01-16T05:37:12;99068.60;;;-4.95;78.82
84427;BME280;74637;52.170;21.034;2024-01-16T05:39:39;99072.96;;;-5.01;78.97
84427;BME280;74637;52.170;21.034;2024-01-16T05:42:05;99074.57;;;-5.05;78.93
84427;BME280;74637;52.170;21.034;2024-01-16T05:44:33;99083.42;;;-5.11;78.77
84427;BME280;74637;52.170;21.034;2024-01-16T05:46:59;99086.38;;;-5.15;78.18
84427;BME280;74637;52.170;21.034;2024-01-16T05:49:26;99091.95;;;-5.18;78.24
84427;BME280;74637;52.170;21.034;2024-01-16T05:51:52;99093.16;;;-5.21;78.35
84427;BME280;74637;52.170;21.034;2024-01-16T05:54:19;99098.03;;;-5.23;79.10
84427;BME280;74637;52.170;21.034;2024-01-16T05:56:45;99102.35;;;-5.23;79.20
84427;BME280;74637;52.170;21.034;2024-01-16T05:59:12;99102.20;;;-5.26;78.28
84427;BME280;74637;52.170;21.034;2024-01-16T06:01:38;99110.86;;;-5.30;78.50
84427;BME280;74637;52.170;21.034;2024-01-16T06:04:05;99110.02;;;-5.32;78.92
84427;BME280;74637;52.170;21.034;2024-01-16T06:06:31;99110.17;;;-5.30;79.06
84427;BME280;74637;52.170;21.034;2024-01-16T06:08:59;99109.63;;;-5.27;79.43
84427;BME280;74637;52.170;21.034;2024-01-16T06:11:32;99112.71;;;-5.23;79.32
84427;BME280;74637;52.170;21.034;2024-01-16T06:13:59;99111.83;;;-5.23;79.29
84427;BME280;74637;52.170;21.034;2024-01-16T06:16:26;99119.60;;;-5.21;79.50
84427;BME280;74637;52.170;21.034;2024-01-16T06:18:53;99126.33;;;-5.20;79.55
84427;BME280;74637;52.170;21.034;2024-01-16T06:21:19;99132.20;;;-5.20;78.96
84427;BME280;74637;52.170;21.034;2024-01-16T06:23:46;99137.93;;;-5.25;79.01
84427;BME280;74637;52.170;21.034;2024-01-16T06:26:12;99149.02;;;-5.28;78.98
84427;BME280;74637;52.170;21.034;2024-01-16T06:28:39;99148.34;;;-5.31;77.05
84427;BME280;74637;52.170;21.034;2024-01-16T06:31:09;99151.30;;;-5.35;77.23
84427;BME280;74637;52.170;21.034;2024-01-16T06:33:36;99155.95;;;-5.33;78.21
84427;BME280;74637;52.170;21.034;2024-01-16T06:36:03;99165.79;;;-5.31;77.36
84427;BME280;74637;52.170;21.034;2024-01-16T06:38:31;99165.62;;;-5.32;77.21
84427;BME280;74637;52.170;21.034;2024-01-16T06:40:57;99175.45;;;-5.29;77.74
84427;BME280;74637;52.170;21.034;2024-01-16T06:43:24;99174.05;;;-5.27;76.81
84427;BME280;74637;52.170;21.034;2024-01-16T06:45:51;99174.73;;;-5.26;77.44
84427;BME280;74637;52.170;21.034;2024-01-16T06:48:17;99180.77;;;-5.25;76.89
84427;BME280;74637;52.170;21.034;2024-01-16T06:50:44;99184.58;;;-5.25;75.98
84427;BME280;74637;52.170;21.034;2024-01-16T06:53:10;99188.89;;;-5.26;75.46
84427;BME280;74637;52.170;21.034;2024-01-16T06:55:37;99190.80;;;-5.26;75.65
84427;BME280;74637;52.170;21.034;2024-01-16T06:58:03;99196.50;;;-5.26;76.36
84427;BME280;74637;52.170;21.034;2024-01-16T07:00:30;99197.20;;;-5.31;75.70
84427;BME280;74637;52.170;21.034;2024-01-16T07:02:57;99207.73;;;-5.29;76.30
84427;BME280;74637;52.170;21.034;2024-01-16T07:05:24;99203.94;;;-5.28;76.93
84427;BME280;74637;52.170;21.034;2024-01-16T07:07:50;99206.51;;;-5.24;76.88
84427;BME280;74637;52.170;21.034;2024-01-16T07:10:17;99214.09;;;-5.21;76.80
84427;BME280;74637;52.170;21.034;2024-01-16T07:12:48;99222.17;;;-5.17;76.77
84427;BME280;74637;52.170;21.034;2024-01-16T07:15:16;99228.38;;;-5.14;75.75
84427;BME280;74637;52.170;21.034;2024-01-16T07:17:42;99235.81;;;-5.13;75.06
84427;BME280;74637;52.170;21.034;2024-01-16T07:20:09;99243.04;;;-5.09;76.36
84427;BME280;74637;52.170;21.034;2024-01-16T07:22:37;99245.10;;;-5.06;74.56
84427;BME280;74637;52.170;21.034;2024-01-16T07:25:06;99245.10;;;-5.06;74.61
84427;BME280;74637;52.170;21.034;2024-01-16T07:27:33;99253.05;;;-5.06;74.97
84427;BME280;74637;52.170;21.034;2024-01-16T07:30:01;99254.77;;;-5.06;74.81
84427;BME280;74637;52.170;21.034;2024-01-16T07:32:28;99252.17;;;-5.07;75.25
84427;BME280;74637;52.170;21.034;2024-01-16T07:34:54;99254.62;;;-5.11;74.23
84427;BME280;74637;52.170;21.034;2024-01-16T07:37:21;99258.09;;;-5.12;75.20
84427;BME280;74637;52.170;21.034;2024-01-16T07:39:47;99261.05;;;-5.15;74.58
84427;BME280;74637;52.170;21.034;2024-01-16T07:42:14;99270.38;;;-5.17;74.91
84427;BME280;74637;52.170;21.034;2024-01-16T07:44:41;99282.66;;;-5.21;74.56
84427;BME280;74637;52.170;21.034;2024-01-16T07:47:08;99288.04;;;-5.25;72.84
84427;BME280;74637;52.170;21.034;2024-01-16T07:49:34;99290.14;;;-5.31;73.09
84427;BME280;74637;52.170;21.034;2024-01-16T07:52:01;99295.33;;;-5.33;73.57
84427;BME280;74637;52.170;21.034;2024-01-16T07:54:27;99306.20;;;-5.33;72.79
84427;BME280;74637;52.170;21.034;2024-01-16T07:56:55;99309.83;;;-5.34;72.66
84427;BME280;74637;52.170;21.034;2024-01-16T07:59:21;99307.93;;;-5.35;72.43
84427;BME280;74637;52.170;21.034;2024-01-16T08:01:49;99309.14;;;-5.34;73.43
84427;BME280;74637;52.170;21.034;2024-01-16T08:04:16;99314.15;;;-5.34;72.34
84427;BME280;74637;52.170;21.034;2024-01-16T08:06:42;99322.43;;;-5.33;72.02
84427;BME280;74637;52.170;21.034;2024-01-16T08:09:09;99321.92;;;-5.33;70.85
84427;BME280;74637;52.170;21.034;2024-01-16T08:11:38;99319.15;;;-5.33;70.80
84427;BME280;74637;52.170;21.034;2024-01-16T08:14:05;99318.98;;;-5.34;70.22
84427;BME280;74637;52.170;21.034;2024-01-16T08:16:32;99322.09;;;-5.33;70.88
84427;BME280;74637;52.170;21.034;2024-01-16T08:18:59;99329.50;;;-5.31;70.94
84427;BME280;74637;52.170;21.034;2024-01-16T08:21:25;99334.67;;;-5.27;70.97
84427;BME280;74637;52.170;21.034;2024-01-16T08:23:52;99339.51;;;-5.26;70.52
84427;BME280;74637;52.170;21.034;2024-01-16T08:26:19;99344.86;;;-5.23;70.76
84427;BME280;74637;52.170;21.034;2024-01-16T08:28:45;99338.12;;;-5.23;68.97
84427;BME280;74637;52.170;21.034;2024-01-16T08:31:12;99350.55;;;-5.23;69.97
84427;BME280;74637;52.170;21.034;2024-01-16T08:33:39;99363.67;;;-5.22;68.81
84427;BME280;74637;52.170;21.034;2024-01-16T08:36:05;99364.89;;;-5.23;68.37
84427;BME280;74637;52.170;21.034;2024-01-16T08:38:32;99360.75;;;-5.23;67.68
84427;BME280;74637;52.170;21.034;2024-01-16T08:40:58;99374.39;;;-5.22;67.33
84427;BME280;74637;52.170;21.034;2024-01-16T08:43:25;99368.52;;;-5.20;69.03
84427;BME280;74637;52.170;21.034;2024-01-16T08:45:51;99370.41;;;-5.18;68.74
84427;BME280;74637;52.170;21.034;2024-01-16T08:48:18;99374.34;;;-5.10;69.53
84427;BME280;74637;52.170;21.034;2024-01-16T08:50:45;99385.91;;;-5.07;68.90
84427;BME280;74637;52.170;21.034;2024-01-16T08:53:11;99379.69;;;-5.04;68.55
84427;BME280;74637;52.170;21.034;2024-01-16T08:55:38;99390.04;;;-5.01;68.71
84427;BME280;74637;52.170;21.034;2024-01-16T08:58:04;99389.85;;;-4.98;68.65
84427;BME280;74637;52.170;21.034;2024-01-16T09:00:32;99396.40;;;-4.94;69.91
84427;BME280;74637;52.170;21.034;2024-01-16T09:02:59;99402.79;;;-4.91;68.40
84427;BME280;74637;52.170;21.034;2024-01-16T09:05:26;99399.52;;;-4.94;67.86
84427;BME280;74637;52.170;21.034;2024-01-16T09:07:53;99401.94;;;-4.93;67.86
84427;BME280;74637;52.170;21.034;2024-01-16T09:10:19;99406.23;;;-4.88;69.54
84427;BME280;74637;52.170;21.034;2024-01-16T09:12:46;99409.15;;;-4.84;69.20
84427;BME280;74637;52.170;21.034;2024-01-16T09:15:14;99410.35;;;-4.81;69.32
84427;BME280;74637;52.170;21.034;2024-01-16T09:17:40;99419.50;;;-4.75;69.36
84427;BME280;74637;52.170;21.034;2024-01-16T09:20:08;99419.84;;;-4.74;68.40
84427;BME280;74637;52.170;21.034;2024-01-16T09:22:35;99419.66;;;-4.73;68.94
84427;BME280;74637;52.170;21.034;2024-01-16T09:25:01;99421.71;;;-4.70;68.97
84427;BME280;74637;52.170;21.034;2024-01-16T09:27:28;99422.76;;;-4.70;66.90
84427;BME280;74637;52.170;21.034;2024-01-16T09:29:54;99422.40;;;-4.69;67.31
84427;BME280;74637;52.170;21.034;2024-01-16T09:32:21;99432.42;;;-4.68;66.97
84427;BME280;74637;52.170;21.034;2024-01-16T09:34:47;99429.66;;;-4.69;66.81
84427;BME280;74637;52.170;21.034;2024-01-16T09:37:14;99428.64;;;-4.71;67.11
84427;BME280;74637;52.170;21.034;2024-01-16T09:39:41;99427.94;;;-4.70;67.08
84427;BME280;74637;52.170;21.034;2024-01-16T09:42:09;99433.10;;;-4.64;68.70
84427;BME280;74637;52.170;21.034;2024-01-16T09:44:36;99437.39;;;-4.58;66.71
84427;BME280;74637;52.170;21.034;2024-01-16T09:47:04;99434.12;;;-4.58;67.02
84427;BME280;74637;52.170;21.034;2024-01-16T09:49:31;99440.84;;;-4.54;67.25
84427;BME280;74637;52.170;21.034;2024-01-16T09:51:58;99448.60;;;-4.50;67.47
84427;BME280;74637;52.170;21.034;2024-01-16T09:54:28;99444.45;;;-4.50;65.12
84427;BME280;74637;52.170;21.034;2024-01-16T09:56:58;99448.25;;;-4.49;67.05
84427;BME280;74637;52.170;21.034;2024-01-16T09:59:26;99455.33;;;-4.46;67.26
84427;BME280;74637;52.170;21.034;2024-01-16T10:01:55;99457.91;;;-4.45;66.97
84427;BME280;74637;52.170;21.034;2024-01-16T10:04:22;99466.70;;;-4.37;67.66
84427;BME280;74637;52.170;21.034;2024-01-16T10:06:49;99467.20;;;-4.35;64.74
84427;BME280;74637;52.170;21.034;2024-01-16T10:09:17;99467.73;;;-4.36;65.94
84427;BME280;74637;52.170;21.034;2024-01-16T10:11:45;99466.83;;;-4.30;67.52
84427;BME280;74637;52.170;21.034;2024-01-16T10:14:12;99472.16;;;-4.22;67.44
84427;BME280;74637;52.170;21.034;2024-01-16T10:17:01;99467.27;;;-4.15;67.37
84427;BME280;74637;52.170;21.034;2024-01-16T10:19:32;99480.55;;;-4.07;65.37
84427;BME280;74637;52.170;21.034;2024-01-16T10:22:03;99479.88;;;-4.09;64.91
84427;BME280;74637;52.170;21.034;2024-01-16T10:24:30;99483.69;;;-4.10;66.26
84427;BME280;74637;52.170;21.034;2024-01-16T10:26:58;99490.23;;;-4.07;67.09
84427;BME280;74637;52.170;21.034;2024-01-16T10:29:27;99501.13;;;-4.03;66.29
84427;BME280;74637;52.170;21.034;2024-01-16T10:31:53;99502.51;;;-4.03;66.31
84427;BME280;74637;52.170;21.034;2024-01-16T10:34:24;99500.08;;;-4.02;65.15
84427;BME280;74637;52.170;21.034;2024-01-16T10:36:54;99504.25;;;-4.06;64.30
84427;BME280;74637;52.170;21.034;2024-01-16T10:39:24;99506.86;;;-4.11;64.10
84427;BME280;74637;52.170;21.034;2024-01-16T10:41:55;99507.73;;;-4.07;66.40
84427;BME280;74637;52.170;21.034;2024-01-16T10:44:23;99513.56;;;-3.98;67.39
84427;BME280;74637;52.170;21.034;2024-01-16T10:46:49;99520.25;;;-3.89;65.12
84427;BME280;74637;52.170;21.034;2024-01-16T10:49:16;99525.59;;;-3.85;64.80
84427;BME280;74637;52.170;21.034;2024-01-16T10:51:43;99527.84;;;-3.84;65.91
84427;BME280;74637;52.170;21.034;2024-01-16T10:54:14;99529.56;;;-3.82;66.20
84427;BME280;74637;52.170;21.034;2024-01-16T10:56:45;99526.40;;;-3.76;67.68
84427;BME280;74637;52.170;21.034;2024-01-16T10:59:18;99520.11;;;-3.67;66.43
84427;BME280;74637;52.170;21.034;2024-01-16T11:01:51;99518.69;;;-3.63;65.91
84427;BME280;74637;52.170;21.034;2024-01-16T11:04:20;99521.66;;;-3.65;66.60
84427;BME280;74637;52.170;21.034;2024-01-16T11:06:47;99523.17;;;-3.59;67.00
84427;BME280;74637;52.170;21.034;2024-01-16T11:09:17;99517.90;;;-3.50;67.39
84427;BME280;74637;52.170;21.034;2024-01-16T11:11:46;99518.34;;;-3.40;67.19
84427;BME280;74637;52.170;21.034;2024-01-16T11:14:13;99524.70;;;-3.33;67.58
84427;BME280;74637;52.170;21.034;2024-01-16T11:16:39;99527.77;;;-3.27;65.85
84427;BME280;74637;52.170;21.034;2024-01-16T11:19:10;99532.33;;;-3.33;63.89
84427;BME280;74637;52.170;21.034;2024-01-16T11:21:38;99534.23;;;-3.31;64.81
84427;BME280;74637;52.170;21.034;2024-01-16T11:24:05;99536.61;;;-3.27;65.47
84427;BME280;74637;52.170;21.034;2024-01-16T11:26:39;99539.48;;;-3.19;67.62
84427;BME280;74637;52.170;21.034;2024-01-16T11:31:56;99538.23;;;-2.94;65.52
84427;BME280;74637;52.170;21.034;2024-01-16T11:37:11;99542.08;;;-3.19;62.57
84427;BME280;74637;52.170;21.034;2024-01-16T11:39:39;99544.52;;;-3.21;63.60
84427;BME280;74637;52.170;21.034;2024-01-16T11:42:06;99547.14;;;-3.22;64.25
84427;BME280;74637;52.170;21.034;2024-01-16T11:44:43;99544.58;;;-3.06;66.81
84427;BME280;74637;52.170;21.034;2024-01-16T11:47:19;99543.77;;;-2.76;65.24
84427;BME280;74637;52.170;21.034;2024-01-16T11:50:27;99542.96;;;-2.67;63.91
84427;BME280;74637;52.170;21.034;2024-01-16T11:52:54;99549.89;;;-2.64;63.84
84427;BME280;74637;52.170;21.034;2024-01-16T11:55:31;99554.27;;;-2.69;63.61
84427;BME280;74637;52.170;21.034;2024-01-16T11:58:05;99558.64;;;-2.71;65.36
84427;BME280;74637;52.170;21.034;2024-01-16T12:00:40;99570.02;;;-2.64;64.57
84427;BME280;74637;52.170;21.034;2024-01-16T12:03:09;99568.61;;;-2.63;63.13
84427;BME280;74637;52.170;21.034;2024-01-16T12:05:36;99569.21;;;-2.54;64.94
84427;BME280;74637;52.170;21.034;2024-01-16T12:08:03;99571.79;;;-2.35;64.54
84427;BME280;74637;52.170;21.034;2024-01-16T12:10:30;99576.84;;;-2.22;64.07
84427;BME280;74637;52.170;21.034;2024-01-16T12:12:58;99571.05;;;-2.17;62.86
84427;BME280;74637;52.170;21.034;2024-01-16T12:15:26;99571.80;;;-1.94;63.32
84427;BME280;74637;52.170;21.034;2024-01-16T12:17:54;99570.34;;;-1.63;64.74
84427;BME280;74637;52.170;21.034;2024-01-16T12:20:22;99569.98;;;-1.26;63.53
84427;BME280;74637;52.170;21.034;2024-01-16T12:23:05;99574.14;;;-0.74;61.65
84427;BME280;74637;52.170;21.034;2024-01-16T12:25:38;99565.94;;;-0.09;59.05
84427;BME280;74637;52.170;21.034;2024-01-16T12:28:06;99566.10;;;0.63;60.23
84427;BME280;74637;52.170;21.034;2024-01-16T12:30:35;99565.05;;;1.21;60.81
84427;BME280;74637;52.170;21.034;2024-01-16T12:35:39;99559.38;;;0.53;60.34
84427;BME280;74637;52.170;21.034;2024-01-16T12:38:07;99569.86;;;-0.22;61.38
84427;BME280;74637;52.170;21.034;2024-01-16T12:40:42;99592.11;;;-0.97;60.29
84427;BME280;74637;52.170;21.034;2024-01-16T12:43:10;99592.31;;;-1.32;61.65
84427;BME280;74637;52.170;21.034;2024-01-16T12:45:37;99601.70;;;-1.43;60.85
84427;BME280;74637;52.170;21.034;2024-01-16T12:48:04;99598.49;;;-1.38;61.55
84427;BME280;74637;52.170;21.034;2024-01-16T12:50:32;99604.55;;;-1.25;64.31
84427;BME280;74637;52.170;21.034;2024-01-16T12:53:07;99605.44;;;-1.26;62.50
84427;BME280;74637;52.170;21.034;2024-01-16T12:55:35;99613.50;;;-1.42;61.69
84427;BME280;74637;52.170;21.034;2024-01-16T12:58:16;99610.04;;;-1.32;61.87
84427;BME280;74637;52.170;21.034;2024-01-16T13:00:48;99604.55;;;-1.03;61.88